Terminal Aerodrome Forecast
Issued by NWS

Home | Current Version | Previous Version | Text Only | Print | Product List | Glossary On
Versions: 1 2 3 4 5 6 7 8 9 10 11 12 13 14 15 16 17 18 19 20 21 22 23 24 25 26
000
FTUS41 KOKX 191742
TAFHPN
TAF
KHPN 191742Z 1918/2018 13008KT P6SM BKN250
     FM200300 10008KT P6SM OVC120
     FM200900 11013G18KT 6SM -RA BKN025 OVC100
     FM201300 11018G23KT 3SM -RA BR OVC010 WS020/12050KT
     FM201700 12012G17KT 1SM RA BR OVC007 WS020/15040KT
      AMD NOT SKED=

USA.gov is the U.S. government's official web portal to all federal, state and local government web resources and services.